Time;durP1;ratioP1;P1;durP2;ratioP2;P2;SDS_P1;SDS_P2;PMS_P1;PMS_P2;Temp;Humidity;BMP_temperature;BMP_pressure;BME280_temperature;BME280_humidity;BME280_pressure;Samples;Min_cycle;Max_cycle;Signal;HPM_P1;HPM_P2
2023/06/02 00:02:22;;;;;;;16.20;9.48;;;;;;;17.16;70.66;95105.69;5037378;28;20063;-77
2023/06/02 00:04:49;;;;;;;20.88;8.18;;;;;;;17.32;70.85;95124.72;5035624;28;20037;-75
2023/06/02 00:07:15;;;;;;;14.55;8.68;;;;;;;17.00;70.95;95077.78;5037681;28;20049;-75
2023/06/02 00:09:42;;;;;;;16.20;8.45;;;;;;;17.06;70.89;95089.91;5037111;28;20128;-76
2023/06/02 00:12:10;;;;;;;17.65;8.80;;;;;;;17.13;70.93;95105.50;5037107;28;20039;-75
2023/06/02 00:14:42;;;;;;;16.05;8.65;;;;;;;17.01;70.41;95081.25;5054829;28;20032;-75
2023/06/02 00:17:10;;;;;;;17.08;8.30;;;;;;;17.29;70.44;95122.69;5036686;28;20132;-75
2023/06/02 00:19:37;;;;;;;17.23;8.32;;;;;;;17.30;70.62;95122.38;5036701;28;20104;-75
2023/06/02 00:22:07;;;;;;;14.55;7.95;;;;;;;17.24;70.18;95120.94;5037130;28;20029;-76
2023/06/02 00:24:32;;;;;;;14.82;8.52;;;;;;;17.08;70.60;95108.34;5036331;28;20021;-76
2023/06/02 00:26:58;;;;;;;16.30;8.48;;;;;;;16.83;70.82;95093.84;5055298;28;20110;-76
2023/06/02 00:29:23;;;;;;;19.35;8.40;;;;;;;16.76;70.33;95086.28;5054618;28;20467;-76
2023/06/02 00:31:49;;;;;;;25.35;8.90;;;;;;;17.02;70.44;95107.69;5054785;28;20091;-76
2023/06/02 00:34:14;;;;;;;15.90;8.73;;;;;;;17.11;70.56;95113.84;5036765;28;20174;-76
2023/06/02 00:36:40;;;;;;;13.23;9.00;;;;;;;17.02;70.16;95086.28;5037062;28;20045;-75
2023/06/02 00:39:06;;;;;;;17.77;8.40;;;;;;;17.13;70.09;95095.56;5037379;28;20112;-76
2023/06/02 00:41:31;;;;;;;18.35;8.82;;;;;;;16.38;70.28;94979.00;5037415;28;20033;-76
2023/06/02 00:43:57;;;;;;;16.63;8.25;;;;;;;17.17;70.38;95096.50;5036913;28;20554;-76
2023/06/02 00:46:23;;;;;;;11.27;7.75;;;;;;;17.28;70.59;95118.41;5036411;28;20029;-76
2023/06/02 00:48:49;;;;;;;16.25;8.85;;;;;;;17.26;70.76;95113.38;5036851;28;20041;-76
2023/06/02 00:51:16;;;;;;;18.38;8.23;;;;;;;17.16;70.68;95099.53;5054198;28;20021;-76
2023/06/02 00:53:43;;;;;;;17.08;9.15;;;;;;;17.25;70.89;95113.69;5036523;28;20051;-76
2023/06/02 00:56:12;;;;;;;14.27;8.05;;;;;;;17.05;70.92;95077.59;5035784;28;20037;-75
2023/06/02 00:58:41;;;;;;;13.98;8.13;;;;;;;17.23;71.31;95115.91;5036093;28;20025;-75
2023/06/02 01:01:11;;;;;;;14.85;8.98;;;;;;;17.16;71.39;95099.53;5035886;28;20029;-75
2023/06/02 01:03:43;;;;;;;14.02;7.93;;;;;;;17.06;71.49;95087.22;5054331;28;20035;-75
2023/06/02 01:06:10;;;;;;;14.10;8.70;;;;;;;17.23;71.78;95107.88;5053635;28;20041;-75
2023/06/02 01:08:39;;;;;;;15.70;8.48;;;;;;;17.15;71.93;95087.22;5036289;28;20047;-75
2023/06/02 01:11:06;;;;;;;15.10;8.57;;;;;;;17.20;71.76;95097.78;5020439;28;20037;-75
2023/06/02 01:13:32;;;;;;;16.30;8.45;;;;;;;17.06;72.05;95087.22;5028000;28;20043;-75
2023/06/02 01:15:58;;;;;;;14.05;8.80;;;;;;;17.06;71.92;95087.22;5035622;28;20064;-75
2023/06/02 01:18:26;;;;;;;14.55;8.35;;;;;;;16.95;71.99;95067.22;5035813;28;20063;-75
2023/06/02 01:20:57;;;;;;;17.33;8.68;;;;;;;16.93;71.99;95069.44;5035471;28;20032;-75
2023/06/02 01:23:29;;;;;;;16.38;8.35;;;;;;;17.03;72.05;95085.16;5053865;28;20455;-75
2023/06/02 01:25:55;;;;;;;15.73;8.65;;;;;;;16.96;72.15;95071.47;5035260;28;20442;-75
2023/06/02 01:28:21;;;;;;;15.32;8.77;;;;;;;16.99;72.22;95078.88;5054059;28;20124;-75
2023/06/02 01:30:55;;;;;;;15.25;8.50;;;;;;;17.13;72.21;95089.44;5035479;28;20515;-75
2023/06/02 01:33:30;;;;;;;21.35;9.32;;;;;;;17.11;72.18;95091.63;5034364;28;20044;-74
2023/06/02 01:35:59;;;;;;;12.35;8.18;;;;;;;16.90;72.32;95056.66;5033823;28;20075;-74
2023/06/02 01:38:26;;;;;;;19.15;9.02;;;;;;;17.12;72.23;95088.63;5033720;28;20032;-75
2023/06/02 01:41:00;;;;;;;16.30;9.52;;;;;;;17.01;72.34;95075.91;5028271;28;20040;-75
2023/06/02 01:43:27;;;;;;;16.55;8.65;;;;;;;16.77;72.54;95041.53;5053283;28;20048;-75
2023/06/02 01:45:54;;;;;;;15.40;9.02;;;;;;;16.99;72.44;95068.16;5036126;28;20503;-75
2023/06/02 01:48:19;;;;;;;21.48;9.98;;;;;;;16.91;72.62;95055.56;5053265;28;20033;-75
2023/06/02 01:50:45;;;;;;;15.77;8.73;;;;;;;17.01;72.45;95062.50;5039853;28;20056;-76
2023/06/02 01:53:10;;;;;;;17.13;8.20;;;;;;;16.65;72.34;95022.63;5035275;28;20055;-75
2023/06/02 01:55:36;;;;;;;16.05;9.05;;;;;;;17.01;72.51;95086.59;5053548;28;20048;-75
2023/06/02 01:58:01;;;;;;;18.25;9.23;;;;;;;16.83;72.31;95057.13;5034808;28;20032;-76
2023/06/02 02:00:27;;;;;;;15.52;9.05;;;;;;;16.92;72.38;95057.13;5035080;28;20053;-75
2023/06/02 02:02:53;;;;;;;25.52;9.75;;;;;;;16.39;72.46;94979.78;5035039;28;20415;-75
2023/06/02 02:05:19;;;;;;;15.75;8.52;;;;;;;16.91;72.38;95061.72;5053515;28;20029;-75
2023/06/02 02:07:46;;;;;;;15.93;9.43;;;;;;;16.68;72.67;95030.03;5035547;28;20043;-75
2023/06/02 02:10:12;;;;;;;24.52;9.63;;;;;;;16.70;72.33;95043.91;5053158;28;20106;-75
2023/06/02 02:12:38;;;;;;;22.63;10.32;;;;;;;16.66;72.44;95038.38;5034999;28;20044;-76
2023/06/02 02:15:07;;;;;;;20.55;9.35;;;;;;;16.91;72.64;95085.81;5053773;28;20037;-76
2023/06/02 02:17:33;;;;;;;25.50;9.77;;;;;;;16.83;72.56;95062.50;5034809;28;20028;-76
2023/06/02 02:20:00;;;;;;;17.73;8.95;;;;;;;16.86;72.37;95063.75;5034746;28;20482;-77
2023/06/02 02:22:26;;;;;;;18.50;9.82;;;;;;;16.90;72.42;95059.34;5015076;28;20040;-76
2023/06/02 02:24:51;;;;;;;20.02;9.30;;;;;;;17.00;72.21;95077.00;5015321;28;20034;-76
2023/06/02 02:27:17;;;;;;;15.90;9.68;;;;;;;16.81;72.34;95050.50;5015825;28;20029;-77
2023/06/02 02:29:44;;;;;;;18.58;9.13;;;;;;;16.85;72.58;95059.50;5030795;28;20033;-76
2023/06/02 02:32:09;;;;;;;14.20;8.48;;;;;;;16.87;72.75;95063.44;5053144;28;20144;-76
2023/06/02 02:34:38;;;;;;;20.10;8.98;;;;;;;16.84;72.68;95052.56;5041376;28;20024;-76
2023/06/02 02:37:06;;;;;;;20.63;8.93;;;;;;;16.97;72.55;95073.03;5034894;28;20037;-76
2023/06/02 02:39:33;;;;;;;16.42;8.23;;;;;;;16.45;72.67;94998.03;5034692;28;20501;-76
2023/06/02 02:41:58;;;;;;;14.25;8.20;;;;;;;16.97;72.63;95075.72;5034850;28;20041;-76
2023/06/02 02:44:24;;;;;;;16.27;8.52;;;;;;;16.84;72.28;95053.34;5035128;28;20032;-77
2023/06/02 02:46:50;;;;;;;15.07;8.40;;;;;;;16.34;71.95;94983.38;5053204;28;20480;-76
2023/06/02 02:49:16;;;;;;;19.13;7.88;;;;;;;16.47;71.87;94997.72;5034420;28;20484;-76
2023/06/02 02:51:41;;;;;;;13.55;8.52;;;;;;;16.77;71.68;95066.44;5052276;28;20128;-76
2023/06/02 02:54:06;;;;;;;13.02;7.40;;;;;;;16.35;70.98;94989.53;5028593;28;20029;-76
2023/06/02 02:56:32;;;;;;;19.40;7.90;;;;;;;16.92;71.23;95071.31;5053211;28;20486;-76
2023/06/02 02:59:00;;;;;;;14.55;7.85;;;;;;;16.74;71.23;95044.84;5034484;28;20053;-75
2023/06/02 03:01:26;;;;;;;15.13;7.82;;;;;;;16.83;71.30;95051.78;5034509;28;20035;-75
2023/06/02 03:03:53;;;;;;;21.23;8.15;;;;;;;16.17;71.00;94952.03;5053234;28;20033;-75
2023/06/02 03:06:19;;;;;;;13.98;7.63;;;;;;;16.93;70.77;95072.91;5034363;28;20024;-75
2023/06/02 03:08:48;;;;;;;22.02;8.07;;;;;;;16.79;70.68;95044.69;5052350;28;20025;-75
2023/06/02 03:11:14;;;;;;;15.93;7.28;;;;;;;16.97;70.30;95073.84;5034334;28;20037;-75
2023/06/02 03:13:39;;;;;;;14.50;7.70;;;;;;;16.81;70.30;95045.94;5051905;28;20021;-75
2023/06/02 03:16:05;;;;;;;15.80;7.95;;;;;;;16.87;70.60;95066.09;5034253;28;20146;-75
2023/06/02 03:18:31;;;;;;;15.10;8.23;;;;;;;16.86;70.87;95066.44;5034762;28;20024;-76
2023/06/02 03:20:58;;;;;;;16.25;7.15;;;;;;;16.86;71.14;95069.13;5020314;28;20033;-75
2023/06/02 03:23:28;;;;;;;19.88;8.52;;;;;;;16.44;71.09;95017.09;5032196;28;20022;-75
2023/06/02 03:25:54;;;;;;;20.88;9.15;;;;;;;16.69;70.80;95043.13;5014875;28;20172;-75
2023/06/02 03:28:20;;;;;;;12.77;8.50;;;;;;;16.50;70.66;95039.91;5045895;28;20029;-75
2023/06/02 03:30:45;;;;;;;14.43;8.02;;;;;;;16.74;70.46;95069.72;5034153;28;20032;-75
2023/06/02 03:33:11;;;;;;;14.68;7.28;;;;;;;16.75;70.09;95063.28;5034046;28;20033;-75
2023/06/02 03:35:36;;;;;;;16.92;7.93;;;;;;;16.68;69.99;95059.50;5036241;28;20032;-75
2023/06/02 03:38:05;;;;;;;18.17;9.10;;;;;;;16.58;69.56;95031.88;5038392;28;20025;-75
2023/06/02 03:40:30;;;;;;;15.05;7.78;;;;;;;16.71;69.70;95042.78;5055423;28;20107;-75
2023/06/02 03:42:56;;;;;;;13.73;7.75;;;;;;;16.97;69.20;95076.50;5038001;28;20071;-75
2023/06/02 03:45:21;;;;;;;15.15;7.78;;;;;;;16.62;69.98;95024.06;5056434;28;20139;-75
2023/06/02 03:47:47;;;;;;;12.25;7.68;;;;;;;16.90;69.91;95062.00;5038350;28;20561;-78
2023/06/02 03:50:12;;;;;;;12.73;7.88;;;;;;;17.01;70.33;95079.34;5037680;28;20025;-76
2023/06/02 03:52:38;;;;;;;18.27;7.25;;;;;;;17.04;70.28;95077.91;5055141;28;20482;-75
2023/06/02 03:55:04;;;;;;;21.88;8.10;;;;;;;17.04;70.70;95072.56;5037487;28;20048;-75
2023/06/02 03:57:30;;;;;;;14.65;7.63;;;;;;;16.92;70.90;95044.53;5040928;28;20021;-75
2023/06/02 03:59:55;;;;;;;16.10;7.78;;;;;;;17.09;70.90;95067.06;5035540;28;20068;-75
2023/06/02 04:02:20;;;;;;;17.75;7.60;;;;;;;17.07;70.47;95063.91;5035706;28;20037;-75
2023/06/02 04:04:46;;;;;;;19.45;8.45;;;;;;;17.02;70.58;95051.44;5017344;28;20048;-75
2023/06/02 04:07:11;;;;;;;12.98;7.50;;;;;;;17.10;70.59;95065.94;5028194;28;20028;-75
2023/06/02 04:09:37;;;;;;;14.75;7.10;;;;;;;16.74;70.56;95004.69;5053630;28;20555;-75
2023/06/02 04:12:03;;;;;;;14.45;7.13;;;;;;;17.04;70.53;95051.13;5041659;28;20021;-75
2023/06/02 04:14:30;;;;;;;18.25;7.95;;;;;;;17.05;70.44;95058.06;5047824;28;20060;-76
2023/06/02 04:16:56;;;;;;;14.60;8.07;;;;;;;16.96;70.46;95029.38;5052588;28;20120;-78
2023/06/02 04:19:22;;;;;;;11.20;7.55;;;;;;;16.97;70.27;95032.84;5022148;28;20025;-78
2023/06/02 04:21:47;;;;;;;16.02;7.95;;;;;;;16.94;70.05;95039.63;5044816;28;20430;-79
2023/06/02 04:24:13;;;;;;;28.00;7.95;;;;;;;17.22;69.97;95063.41;5044529;28;20067;-79
2023/06/02 04:26:38;;;;;;;20.33;8.18;;;;;;;16.73;69.83;94989.72;5049080;28;20032;-78
2023/06/02 04:29:04;;;;;;;13.63;7.72;;;;;;;16.84;69.53;94994.44;5019014;28;20070;-78
2023/06/02 04:31:39;;;;;;;13.80;8.80;;;;;;;17.05;69.55;95024.03;5023572;28;20048;-79
2023/06/02 04:34:05;;;;;;;15.70;7.38;;;;;;;17.03;69.43;95014.72;5031777;28;20037;-79
2023/06/02 04:36:30;;;;;;;19.90;8.40;;;;;;;17.24;69.56;95047.81;5045259;28;20033;-79
2023/06/02 04:38:57;;;;;;;15.02;8.38;;;;;;;17.20;69.90;95031.56;5047903;28;20090;-79
2023/06/02 04:41:22;;;;;;;13.02;7.63;;;;;;;17.24;69.86;95034.41;5047003;28;20044;-79
2023/06/02 04:43:48;;;;;;;16.83;8.70;;;;;;;17.38;69.54;95053.78;5045936;28;20516;-79
2023/06/02 04:46:13;;;;;;;19.10;9.02;;;;;;;17.20;69.21;95030.78;5043909;28;20096;-79
2023/06/02 04:48:40;;;;;;;26.65;9.00;;;;;;;17.24;68.80;95039.78;5026718;28;20029;-79
2023/06/02 04:51:07;;;;;;;16.55;9.20;;;;;;;17.16;69.00;95033.31;5045574;28;20116;-79
2023/06/02 04:53:32;;;;;;;18.55;7.95;;;;;;;17.18;68.78;95032.97;5051093;28;20021;-79
2023/06/02 04:55:58;;;;;;;17.95;7.63;;;;;;;17.48;68.19;95076.75;5049824;28;20562;-80
2023/06/02 04:58:24;;;;;;;13.10;7.90;;;;;;;17.40;68.15;95050.75;5032219;28;20068;-80
2023/06/02 05:00:50;;;;;;;18.55;7.68;;;;;;;17.35;67.81;95049.81;5024237;28;20072;-80
2023/06/02 05:03:15;;;;;;;19.48;7.38;;;;;;;17.58;67.91;95084.47;5006087;28;20029;-80
2023/06/02 05:05:41;;;;;;;22.35;8.10;;;;;;;17.51;67.81;95068.09;5023805;28;20112;-79
2023/06/02 05:08:06;;;;;;;17.05;8.05;;;;;;;17.06;67.50;94995.34;5030412;28;20064;-81
2023/06/02 05:10:32;;;;;;;15.95;8.40;;;;;;;16.09;67.34;94842.38;5046148;28;20033;-81
2023/06/02 05:12:58;;;;;;;18.70;8.85;;;;;;;17.68;67.22;95092.22;5021219;28;20056;-81
2023/06/02 05:15:23;;;;;;;23.83;7.80;;;;;;;17.72;67.03;95085.88;5022439;28;20057;-82
2023/06/02 05:17:49;;;;;;;13.40;7.32;;;;;;;17.02;66.95;94971.06;5027362;28;20072;-81
2023/06/02 05:20:15;;;;;;;9.85;6.68;;;;;;;17.76;66.78;95083.34;5024606;28;20562;-81
2023/06/02 05:22:40;;;;;;;23.02;6.85;;;;;;;17.45;66.69;95024.56;5038029;28;20029;-80
2023/06/02 05:25:07;;;;;;;14.18;8.32;;;;;;;17.62;66.70;95069.34;5036414;28;20033;-80
2023/06/02 05:27:32;;;;;;;19.15;8.13;;;;;;;17.42;66.28;95024.41;5023381;28;20707;-80
2023/06/02 05:29:57;;;;;;;18.77;8.40;;;;;;;17.89;66.46;95093.09;5042690;28;20029;-80
2023/06/02 05:32:24;;;;;;;20.27;7.93;;;;;;;17.53;66.27;95039.84;5023162;28;20031;-80
2023/06/02 05:34:51;;;;;;;14.27;8.23;;;;;;;17.86;66.07;95074.94;5021141;28;20061;-79
2023/06/02 05:37:16;;;;;;;19.50;8.95;;;;;;;17.94;65.86;95084.84;5021195;28;20037;-79
2023/06/02 05:39:43;;;;;;;19.65;8.57;;;;;;;17.70;65.55;95036.34;5037910;28;20025;-80
2023/06/02 05:42:09;;;;;;;15.30;7.57;;;;;;;17.66;65.04;95024.69;5021673;28;20037;-79
2023/06/02 05:44:35;;;;;;;10.38;7.50;;;;;;;17.73;63.82;95060.63;5021514;28;20032;-79
2023/06/02 05:47:00;;;;;;;13.50;7.28;;;;;;;17.78;63.59;95051.59;5023424;28;20055;-81
2023/06/02 05:49:26;;;;;;;13.77;7.50;;;;;;;17.85;63.92;95068.00;5040843;28;20065;-81
2023/06/02 05:51:51;;;;;;;23.58;8.50;;;;;;;17.65;64.08;95039.19;5026074;28;20155;-80
2023/06/02 05:54:17;;;;;;;19.55;7.93;;;;;;;17.79;63.91;95037.09;5019751;28;20579;-79
2023/06/02 05:56:43;;;;;;;13.90;7.57;;;;;;;18.11;63.75;95076.72;5014812;28;20037;-79
2023/06/02 05:59:08;;;;;;;16.63;8.07;;;;;;;17.67;63.65;94980.69;5016988;28;20057;-81
2023/06/02 06:01:34;;;;;;;22.17;8.50;;;;;;;17.70;64.55;95002.25;5037697;28;20063;-84
2023/06/02 06:03:59;;;;;;;16.98;8.40;;;;;;;18.11;64.85;95057.16;5020058;28;20439;-78
2023/06/02 06:06:25;;;;;;;15.10;7.22;;;;;;;18.39;64.76;95081.63;5033895;28;20570;-78
2023/06/02 06:08:50;;;;;;;12.27;8.13;;;;;;;18.24;64.80;95050.75;5034127;28;20047;-77
2023/06/02 06:11:16;;;;;;;16.23;8.20;;;;;;;18.46;64.88;95087.31;5037776;28;20044;-78
2023/06/02 06:13:42;;;;;;;14.05;8.27;;;;;;;18.30;64.66;95060.22;5010334;28;20853;-80
2023/06/02 06:16:07;;;;;;;13.95;8.85;;;;;;;18.25;64.74;95060.38;5030321;28;20834;-81
2023/06/02 06:18:33;;;;;;;24.38;9.73;;;;;;;18.39;64.67;95079.72;5037045;28;20033;-82
2023/06/02 06:20:58;;;;;;;17.05;9.73;;;;;;;18.29;64.90;95033.69;5031935;28;20214;-81
2023/06/02 06:23:25;;;;;;;23.45;10.73;;;;;;;18.43;64.83;95063.78;5024171;28;20089;-81
2023/06/02 06:25:50;;;;;;;17.60;8.95;;;;;;;18.59;64.44;95088.19;5031275;28;20036;-81
2023/06/02 06:28:16;;;;;;;19.48;9.25;;;;;;;18.03;64.09;94996.25;5011091;28;20088;-77
2023/06/02 06:30:41;;;;;;;19.13;9.88;;;;;;;18.37;64.08;95046.28;5036584;28;20086;-79
2023/06/02 06:33:08;;;;;;;20.88;8.70;;;;;;;18.44;63.90;95047.34;5019347;28;20047;-80
2023/06/02 06:35:40;;;;;;;19.42;9.82;;;;;;;18.61;63.95;95065.28;5036308;28;20059;-81
2023/06/02 06:38:05;;;;;;;14.35;8.32;;;;;;;18.29;63.60;95036.38;5034058;28;20087;-79
2023/06/02 06:40:31;;;;;;;17.67;8.70;;;;;;;18.77;63.47;95092.31;5014067;28;20037;-80
2023/06/02 06:42:57;;;;;;;13.68;8.32;;;;;;;18.84;63.43;95089.94;5039673;28;20030;-81
2023/06/02 06:45:23;;;;;;;13.32;7.68;;;;;;;18.44;63.01;95017.81;5020741;28;20119;-80
2023/06/02 06:47:50;;;;;;;20.73;8.68;;;;;;;18.92;62.74;95089.03;5021045;28;20047;-79
2023/06/02 06:50:16;;;;;;;14.32;7.82;;;;;;;18.48;62.66;95026.78;5017149;28;20558;-80
2023/06/02 06:52:42;;;;;;;14.48;8.95;;;;;;;18.46;62.24;95004.81;5023613;28;20059;-80
2023/06/02 06:55:08;;;;;;;20.58;8.18;;;;;;;19.09;62.43;95085.44;5035012;28;20033;-82
2023/06/02 06:57:34;;;;;;;13.07;7.55;;;;;;;18.99;62.61;95059.78;5021189;28;20472;-81
2023/06/02 06:59:59;;;;;;;14.10;8.45;;;;;;;18.91;62.44;95038.34;5036922;28;20044;-78
2023/06/02 07:02:25;;;;;;;18.23;9.82;;;;;;;19.03;62.85;95078.69;5037236;28;20075;-79
2023/06/02 07:04:50;;;;;;;14.27;8.05;;;;;;;19.23;62.19;95083.25;5020918;28;20091;-79
2023/06/02 07:07:16;;;;;;;16.70;8.02;;;;;;;19.15;61.25;95068.78;5019539;28;20043;-79
2023/06/02 07:09:42;;;;;;;14.57;7.90;;;;;;;19.06;61.13;95027.78;5036447;28;20037;-79
2023/06/02 07:12:08;;;;;;;13.55;8.60;;;;;;;19.36;61.02;95089.50;5023943;28;20515;-79
2023/06/02 07:14:33;;;;;;;18.85;7.63;;;;;;;19.33;60.55;95065.94;5027379;28;20036;-79
2023/06/02 07:16:59;;;;;;;14.68;7.38;;;;;;;19.27;59.04;95055.41;5023208;28;20513;-80
2023/06/02 07:19:25;;;;;;;10.68;6.63;;;;;;;19.40;58.51;95082.31;5022506;28;20052;-79
2023/06/02 07:21:51;;;;;;;10.57;6.40;;;;;;;19.47;58.44;95075.31;5022283;28;20025;-79
2023/06/02 07:24:17;;;;;;;10.45;6.63;;;;;;;19.79;57.98;95086.38;5039551;28;20566;-79
2023/06/02 07:26:43;;;;;;;13.63;6.78;;;;;;;19.38;57.45;95038.84;5038685;28;20045;-79
2023/06/02 07:29:08;;;;;;;18.02;7.32;;;;;;;19.69;57.50;95059.91;5041710;28;20045;-79
2023/06/02 07:31:34;;;;;;;15.50;7.30;;;;;;;19.43;57.48;95028.66;5018190;28;20036;-79
2023/06/02 07:33:59;;;;;;;11.85;7.95;;;;;;;19.99;57.64;95083.59;5042935;28;20068;-81
2023/06/02 07:36:25;;;;;;;9.07;6.82;;;;;;;20.15;57.07;95085.63;5039964;28;20094;-80
2023/06/02 07:38:50;;;;;;;14.85;7.10;;;;;;;20.26;57.13;95067.91;5024833;28;20125;-81
2023/06/02 07:41:16;;;;;;;16.65;6.97;;;;;;;20.63;56.70;95095.66;5020728;28;20025;-80
2023/06/02 07:43:42;;;;;;;14.45;7.40;;;;;;;20.70;55.88;95080.47;5020804;28;20021;-79
2023/06/02 07:46:07;;;;;;;17.40;7.40;;;;;;;20.75;55.16;95088.31;5024384;28;20153;-81
2023/06/02 07:48:33;;;;;;;15.65;7.30;;;;;;;20.65;54.88;95034.13;5038649;28;20824;-80
2023/06/02 07:50:58;;;;;;;12.68;6.93;;;;;;;21.21;54.92;95085.44;5019571;28;20034;-79
2023/06/02 07:53:24;;;;;;;13.98;6.30;;;;;;;21.15;53.99;95066.75;5041732;28;20380;-80
2023/06/02 07:55:49;;;;;;;14.18;7.05;;;;;;;21.35;53.42;95067.75;5040071;28;20030;-81
2023/06/02 07:58:15;;;;;;;11.23;6.68;;;;;;;21.44;54.45;95052.16;5022275;28;20044;-83
2023/06/02 08:00:41;;;;;;;11.75;6.78;;;;;;;21.81;54.01;95070.88;5019452;28;20046;-79
2023/06/02 08:03:07;;;;;;;13.38;7.00;;;;;;;22.14;54.55;95095.66;5015730;28;20029;-80
2023/06/02 08:05:32;;;;;;;16.10;6.25;;;;;;;22.01;51.72;95069.88;5015907;28;20037;-81
2023/06/02 08:07:58;;;;;;;11.32;5.47;;;;;;;22.01;49.80;95080.66;5016401;28;20121;-80
2023/06/02 08:10:25;;;;;;;11.32;6.45;;;;;;;21.61;49.96;94991.69;5018296;28;20040;-81
2023/06/02 08:12:50;;;;;;;16.02;7.75;;;;;;;22.45;50.90;95088.66;5019237;28;20034;-81
2023/06/02 08:15:16;;;;;;;18.65;7.45;;;;;;;22.38;51.15;95058.78;5008072;28;20049;-81
2023/06/02 08:17:41;;;;;;;16.83;6.90;;;;;;;22.68;50.95;95068.75;5021430;28;20507;-80
2023/06/02 08:20:07;;;;;;;17.25;7.43;;;;;;;23.00;51.00;95082.19;5015431;28;20026;-80
2023/06/02 08:22:34;;;;;;;13.13;6.68;;;;;;;23.04;51.38;95081.13;5011044;28;20100;-80
2023/06/02 08:25:00;;;;;;;12.98;6.93;;;;;;;22.67;50.27;94996.09;5021343;28;20026;-82
2023/06/02 08:27:26;;;;;;;19.27;7.70;;;;;;;22.99;49.67;95034.66;5019305;28;20248;-79
2023/06/02 08:29:53;;;;;;;17.60;6.90;;;;;;;23.42;50.00;95071.47;5022304;28;20120;-79
2023/06/02 08:32:22;;;;;;;17.02;7.18;;;;;;;23.47;50.65;95066.53;5019220;28;20115;-79
2023/06/02 08:34:50;;;;;;;14.98;7.07;;;;;;;23.46;50.85;95048.72;5018478;28;20029;-79
2023/06/02 08:37:19;;;;;;;16.08;7.18;;;;;;;23.51;49.98;95060.44;5019461;28;20507;-79
2023/06/02 08:39:47;;;;;;;14.93;6.97;;;;;;;23.37;49.95;95015.69;5019086;28;20044;-79
2023/06/02 08:42:13;;;;;;;13.45;6.90;;;;;;;23.69;49.63;95056.13;5017185;28;20032;-79
2023/06/02 08:44:41;;;;;;;13.35;7.15;;;;;;;23.35;48.15;95012.56;5014549;28;20022;-79
2023/06/02 08:47:11;;;;;;;12.18;7.43;;;;;;;23.38;47.67;95019.19;5018909;28;20801;-79
2023/06/02 08:49:46;;;;;;;10.60;6.78;;;;;;;23.36;48.26;95022.25;5025174;28;20040;-78
2023/06/02 08:52:23;;;;;;;14.40;9.57;;;;;;;23.53;49.55;95048.09;5043865;28;20029;-79
2023/06/02 08:54:49;;;;;;;13.90;6.65;;;;;;;23.20;50.22;94986.38;5001115;28;20432;-79
2023/06/02 08:57:20;;;;;;;17.90;9.18;;;;;;;23.35;49.41;95033.41;5017146;28;20037;-79
2023/06/02 08:59:46;;;;;;;11.53;6.77;;;;;;;23.13;47.96;95023.34;5030572;28;20118;-79
2023/06/02 09:02:12;;;;;;;13.38;6.47;;;;;;;22.96;47.32;95002.94;5019740;28;20028;-79
2023/06/02 09:04:38;;;;;;;10.98;5.65;;;;;;;23.02;48.08;94998.78;5029894;28;20090;-80
2023/06/02 09:07:12;;;;;;;18.25;9.52;;;;;;;23.01;48.68;95014.25;5023153;28;20049;-80
2023/06/02 09:09:49;;;;;;;12.63;4.93;;;;;;;22.12;44.65;94930.50;5026116;28;20041;-79
2023/06/02 09:12:16;;;;;;;15.68;6.57;;;;;;;22.66;44.86;95010.75;5036870;28;20068;-79
2023/06/02 09:14:42;;;;;;;10.70;6.70;;;;;;;22.67;45.96;95001.50;5042111;28;20102;-79
2023/06/02 09:17:40;;;;;;;11.55;6.63;;;;;;;22.66;48.98;95006.13;5037775;28;20294;-79
2023/06/02 09:20:08;;;;;;;12.52;6.13;;;;;;;22.64;47.72;94986.03;5000420;28;21404;-82
2023/06/02 09:22:34;;;;;;;14.52;6.50;;;;;;;22.59;48.42;94983.56;5019761;28;20035;-80
2023/06/02 09:25:00;;;;;;;12.98;6.90;;;;;;;22.61;51.14;94973.97;5035298;28;20029;-81
2023/06/02 09:27:26;;;;;;;20.08;7.93;;;;;;;21.91;50.96;94878.66;5023677;28;20039;-79
2023/06/02 09:29:59;;;;;;;18.20;6.63;;;;;;;22.79;50.46;94996.03;5040170;28;20029;-79
2023/06/02 09:32:25;;;;;;;10.77;5.63;;;;;;;22.38;50.89;94934.50;5030793;28;20115;-85
2023/06/02 09:34:50;;;;;;;19.25;7.20;;;;;;;22.71;52.23;94967.25;5040326;28;20132;-78
2023/06/02 09:37:17;;;;;;;11.02;6.85;;;;;;;22.79;52.23;94968.19;5036987;28;20056;-79
2023/06/02 09:39:46;;;;;;;11.45;6.55;;;;;;;22.65;52.56;94939.72;5035429;28;20115;-79
2023/06/02 09:42:16;;;;;;;14.43;6.60;;;;;;;23.28;52.33;94958.31;5032778;28;20090;-79
2023/06/02 09:45:07;;;;;;;21.25;6.80;;;;;;;24.54;47.78;94982.44;5036158;28;20037;-79
2023/06/02 09:47:41;;;;;;;17.38;5.45;;;;;;;25.78;44.55;94985.84;5022586;28;20025;-78
2023/06/02 09:50:09;;;;;;;13.02;5.00;;;;;;;26.72;42.45;94961.63;5037733;28;20051;-81
2023/06/02 09:52:35;;;;;;;11.07;4.90;;;;;;;27.74;39.53;94968.59;5022536;28;20029;-82
2023/06/02 09:55:01;;;;;;;8.13;4.50;;;;;;;28.55;35.14;94975.97;5022246;28;20128;-79
2023/06/02 09:57:29;;;;;;;6.55;4.28;;;;;;;29.14;35.29;94980.47;5042365;28;20595;-79
2023/06/02 09:59:57;;;;;;;8.48;4.50;;;;;;;29.28;33.07;94948.84;5040923;28;20044;-80
2023/06/02 10:02:23;;;;;;;8.23;4.35;;;;;;;29.45;31.10;94931.56;5041845;28;20116;-79
2023/06/02 10:04:48;;;;;;;9.43;4.72;;;;;;;30.24;32.18;94952.47;5038765;28;20279;-79
2023/06/02 10:07:45;;;;;;;6.20;4.47;;;;;;;30.67;32.14;94974.72;5041979;28;20102;-79
2023/06/02 10:10:36;;;;;;;8.05;4.70;;;;;;;30.96;32.00;94979.91;4999048;28;20044;-79
2023/06/02 10:13:04;;;;;;;14.07;4.15;;;;;;;31.09;30.34;94964.53;5039735;28;20198;-79
2023/06/02 10:15:44;;;;;;;8.95;4.22;;;;;;;30.86;29.47;94954.19;5020938;28;20556;-79
2023/06/02 10:18:54;;;;;;;8.70;4.47;;;;;;;30.65;28.92;94919.66;5034702;28;20495;-79
2023/06/02 10:21:58;;;;;;;5.72;4.18;;;;;;;30.27;29.48;94953.63;5000747;28;20529;-79
2023/06/02 10:24:29;;;;;;;7.22;4.10;;;;;;;30.17;29.82;94960.75;5023626;28;20080;-78
2023/06/02 10:27:12;;;;;;;9.73;4.25;;;;;;;30.08;32.73;94952.22;5038464;28;20041;-79
2023/06/02 10:29:39;;;;;;;8.70;4.20;;;;;;;29.28;30.54;94916.84;5018702;28;20033;-80
2023/06/02 10:32:27;;;;;;;8.27;4.65;;;;;;;29.22;31.03;94944.97;5031637;28;20033;-78
2023/06/02 10:34:56;;;;;;;5.60;4.47;;;;;;;29.28;31.33;94913.34;5014224;28;20041;-78
2023/06/02 10:37:23;;;;;;;8.23;4.82;;;;;;;29.66;31.33;94950.56;4999152;28;20039;-77
2023/06/02 10:39:56;;;;;;;8.93;4.18;;;;;;;29.81;30.64;94930.16;5037439;28;20045;-77
2023/06/02 10:42:24;;;;;;;7.07;4.53;;;;;;;29.79;31.74;94921.56;5033183;28;20033;-78
2023/06/02 10:44:52;;;;;;;8.82;4.30;;;;;;;29.34;30.86;94931.63;5040339;28;20029;-78
2023/06/02 10:47:17;;;;;;;12.88;4.85;;;;;;;29.45;31.24;94923.38;5029302;28;20107;-78
2023/06/02 10:50:06;;;;;;;10.63;4.80;;;;;;;29.64;29.39;94928.34;5024660;28;20056;-78
2023/06/02 10:52:34;;;;;;;8.30;3.78;;;;;;;29.86;29.27;94921.53;5037880;28;20083;-78
2023/06/02 10:55:12;;;;;;;8.50;3.65;;;;;;;30.06;29.54;94918.28;5043888;28;20060;-78
2023/06/02 10:58:01;;;;;;;5.82;4.13;;;;;;;30.29;31.50;94919.19;5040048;28;20056;-79
2023/06/02 11:00:32;;;;;;;7.07;4.10;;;;;;;30.51;30.51;94922.53;5025197;28;20185;-79
2023/06/02 11:03:01;;;;;;;8.27;4.10;;;;;;;29.69;28.91;94905.25;5026912;28;20772;-79
2023/06/02 11:05:32;;;;;;;6.93;4.85;;;;;;;30.12;29.09;94913.91;5042951;28;20041;-79
2023/06/02 11:08:10;;;;;;;9.13;5.13;;;;;;;30.49;28.30;94915.88;5023896;28;20037;-79
2023/06/02 11:11:02;;;;;;;12.82;5.03;;;;;;;30.60;28.40;94903.66;5017423;28;20509;-79
2023/06/02 11:13:29;;;;;;;5.97;4.32;;;;;;;30.94;27.57;94900.13;5016662;28;20052;-79
2023/06/02 11:16:00;;;;;;;8.52;4.90;;;;;;;31.16;27.24;94906.13;5039157;28;20505;-80
2023/06/02 11:18:27;;;;;;;9.90;4.47;;;;;;;30.94;28.08;94908.34;5043744;28;20048;-78
2023/06/02 11:20:55;;;;;;;6.35;3.92;;;;;;;30.78;27.78;94908.16;5022894;28;20113;-78
2023/06/02 11:23:22;;;;;;;6.22;4.00;;;;;;;30.66;28.99;94896.56;5020130;28;20030;-78
2023/06/02 11:25:48;;;;;;;6.03;4.00;;;;;;;30.47;28.05;94905.34;5021625;28;20443;-78
2023/06/02 11:28:24;;;;;;;10.60;4.97;;;;;;;29.64;28.47;94794.44;5025456;28;20041;-79
2023/06/02 11:31:16;;;;;;;8.00;4.85;;;;;;;30.28;28.20;94897.75;5038409;28;20124;-78